createdAt,value
2019-01-10T00:02:04.627Z,14.50
2019-01-10T00:07:08.303Z,12.73
2019-01-10T00:12:12.367Z,14.70
2019-01-10T00:17:16.190Z,14.50
2019-01-10T00:22:20.135Z,14.77
2019-01-10T00:27:23.905Z,14.57
2019-01-10T00:32:27.592Z,14.67
2019-01-10T00:37:31.282Z,13.57
2019-01-10T00:42:35.268Z,15.33
2019-01-10T00:47:39.371Z,13.67
2019-01-10T00:52:43.398Z,16.33
2019-01-10T00:57:47.143Z,12.80
2019-01-10T01:02:51.349Z,11.13
2019-01-10T01:07:55.104Z,11.93
2019-01-10T01:12:59.020Z,12.60
2019-01-10T01:18:02.853Z,11.40
2019-01-10T01:23:06.626Z,9.80
2019-01-10T01:28:10.651Z,9.03
2019-01-10T01:33:14.438Z,11.30
2019-01-10T01:38:18.435Z,10.90
2019-01-10T01:43:22.182Z,9.57
2019-01-10T01:48:25.881Z,12.60
2019-01-10T01:53:29.908Z,10.30
2019-01-10T01:58:33.568Z,11.17
2019-01-10T02:03:37.318Z,10.90
2019-01-10T02:08:41.085Z,12.20
2019-01-10T02:13:44.785Z,10.53
2019-01-10T02:18:48.470Z,12.77
2019-01-10T02:23:52.381Z,11.13
2019-01-10T02:28:56.380Z,11.03
2019-01-10T02:34:00.109Z,10.47
2019-01-10T02:39:06.074Z,9.80
2019-01-10T02:44:09.839Z,10.67
2019-01-10T02:49:14.029Z,10.63
2019-01-10T02:54:17.733Z,11.13
2019-01-10T02:59:21.429Z,10.07
2019-01-10T03:04:25.132Z,9.17
2019-01-10T03:09:29.253Z,8.80
2019-01-10T03:14:32.938Z,9.10
2019-01-10T03:19:36.986Z,10.80
2019-01-10T03:24:40.892Z,9.47
2019-01-10T03:29:44.764Z,10.37
2019-01-10T03:34:48.457Z,10.03
2019-01-10T03:39:52.169Z,10.77
2019-01-10T03:44:56.103Z,11.07
2019-01-10T03:49:59.852Z,11.43
2019-01-10T03:55:03.755Z,11.77
2019-01-10T04:00:11.176Z,13.73
2019-01-10T04:05:15.022Z,11.37
2019-01-10T04:10:18.893Z,11.97
2019-01-10T04:15:22.675Z,13.30
2019-01-10T04:20:26.846Z,15.17
2019-01-10T04:25:30.767Z,14.70
2019-01-10T04:30:34.452Z,12.70
2019-01-10T04:35:38.176Z,13.50
2019-01-10T04:40:42.092Z,18.03
2019-01-10T04:45:45.880Z,17.87
2019-01-10T04:50:49.564Z,15.20
2019-01-10T04:55:55.636Z,17.77
2019-01-10T05:00:59.392Z,16.80
2019-01-10T05:06:04.922Z,16.57
2019-01-10T05:11:11.349Z,18.83
2019-01-10T05:16:14.775Z,17.70
2019-01-10T05:21:18.517Z,18.27
2019-01-10T05:26:22.469Z,19.50
2019-01-10T05:31:26.178Z,19.70
2019-01-10T05:36:29.868Z,18.23
2019-01-10T05:41:33.569Z,26.87
2019-01-10T05:46:37.526Z,61.93
2019-01-10T05:51:41.669Z,19.40
2019-01-10T05:56:45.437Z,16.07
2019-01-10T06:01:49.385Z,13.73
2019-01-10T06:06:53.887Z,15.50
2019-01-10T06:11:57.673Z,13.30
2019-01-10T06:17:01.498Z,15.40
2019-01-10T06:22:05.173Z,14.97
2019-01-10T06:27:09.144Z,15.57
2019-01-10T06:32:12.860Z,18.20
2019-01-10T06:37:16.924Z,20.10
2019-01-10T06:42:20.683Z,16.40
2019-01-10T06:47:24.652Z,14.80
2019-01-10T06:52:28.578Z,18.13
2019-01-10T06:57:32.340Z,16.47
2019-01-10T07:02:36.035Z,18.73
2019-01-10T07:07:39.753Z,15.60
2019-01-10T07:12:43.696Z,14.87
2019-01-10T07:17:47.780Z,12.40
2019-01-10T07:22:52.641Z,20.47
2019-01-10T07:27:56.778Z,10.47
2019-01-10T07:33:00.597Z,10.97
2019-01-10T07:38:06.903Z,15.37
2019-01-10T07:43:11.090Z,12.40
2019-01-10T07:48:15.176Z,11.00
2019-01-10T07:53:19.039Z,12.10
2019-01-10T07:58:23.019Z,11.87
2019-01-10T08:03:27.041Z,8.47
2019-01-10T08:08:30.748Z,15.43
2019-01-10T08:13:34.519Z,10.27
2019-01-10T08:18:38.220Z,12.30
2019-01-10T08:23:41.972Z,10.70
2019-01-10T08:28:46.550Z,11.73
2019-01-10T08:33:50.633Z,8.20
2019-01-10T08:38:54.876Z,7.50
2019-01-10T08:43:59.147Z,9.10
2019-01-10T08:49:03.418Z,11.93
2019-01-10T08:54:07.872Z,7.63
2019-01-10T08:59:12.213Z,8.97
2019-01-10T09:04:16.743Z,11.97
2019-01-10T09:09:21.040Z,5.13
2019-01-10T09:14:25.147Z,7.07
2019-01-10T09:19:29.281Z,8.07
2019-01-10T09:24:33.818Z,6.77
2019-01-10T09:29:38.033Z,8.23
2019-01-10T09:34:42.328Z,5.47
2019-01-10T09:39:46.772Z,8.20
2019-01-10T09:44:51.027Z,8.03
2019-01-10T09:49:55.578Z,6.23
2019-01-10T09:54:59.746Z,4.87
2019-01-10T10:00:07.092Z,6.13
2019-01-10T10:05:11.704Z,5.73
2019-01-10T10:10:17.867Z,5.37
2019-01-10T10:15:22.684Z,8.13
2019-01-10T10:20:27.637Z,5.40
2019-01-10T10:25:31.814Z,5.57
2019-01-10T10:30:36.308Z,2.30
2019-01-10T10:35:49.832Z,5.23
2019-01-10T10:40:54.198Z,5.00
2019-01-10T10:46:01.742Z,4.43
2019-01-10T10:51:04.533Z,4.10
2019-01-10T10:56:09.694Z,4.13
2019-01-10T11:01:13.653Z,5.93
2019-01-10T11:06:17.794Z,2.30
2019-01-10T11:11:21.846Z,5.00
2019-01-10T11:16:26.028Z,4.30
2019-01-10T11:21:33.215Z,5.73
2019-01-10T11:26:37.406Z,6.17
2019-01-10T11:31:41.871Z,5.83
2019-01-10T11:36:45.975Z,3.33
2019-01-10T11:41:50.030Z,7.37
2019-01-10T11:46:54.496Z,5.27
2019-01-10T11:51:58.309Z,5.17
2019-01-10T11:57:01.988Z,4.50
2019-01-10T12:02:05.685Z,2.17
2019-01-10T12:07:09.378Z,3.00
2019-01-10T12:12:13.047Z,4.40
2019-01-10T12:17:16.730Z,3.67
2019-01-10T12:22:20.571Z,3.50
2019-01-10T12:27:24.294Z,3.03
2019-01-10T12:32:28.057Z,5.40
2019-01-10T12:37:31.989Z,2.00
2019-01-10T12:42:35.646Z,6.40
2019-01-10T12:47:39.336Z,3.27
2019-01-10T12:52:44.511Z,2.80
2019-01-10T12:57:48.243Z,4.07
2019-01-10T13:02:52.795Z,4.53
2019-01-10T13:08:03.490Z,4.00
2019-01-10T13:13:01.860Z,4.23
2019-01-10T13:18:05.596Z,2.53
2019-01-10T13:23:09.259Z,5.30
2019-01-10T13:28:12.913Z,2.00
2019-01-10T13:33:16.786Z,2.43
2019-01-10T13:38:20.464Z,3.97
2019-01-10T13:43:24.195Z,3.57
2019-01-10T13:48:27.963Z,3.43
2019-01-10T13:53:31.626Z,4.80
2019-01-10T13:58:35.805Z,5.70
2019-01-10T14:03:40.009Z,8.00
2019-01-10T14:08:43.732Z,10.77
2019-01-10T14:13:47.401Z,5.80
2019-01-10T14:18:51.268Z,10.37
2019-01-10T14:23:54.941Z,6.80
2019-01-10T14:28:58.909Z,5.17
2019-01-10T14:34:02.560Z,11.07
2019-01-10T14:39:08.671Z,5.23
2019-01-10T14:44:12.830Z,5.03
2019-01-10T14:49:16.593Z,5.87
2019-01-10T14:54:20.484Z,4.03
2019-01-10T14:59:24.261Z,7.90
2019-01-10T15:04:27.987Z,5.13
2019-01-10T15:09:31.993Z,12.70
2019-01-10T15:14:35.887Z,5.50
2019-01-10T15:19:39.826Z,5.00
2019-01-10T15:24:44.086Z,6.30
2019-01-10T15:29:48.113Z,4.30
2019-01-10T15:34:52.101Z,5.83
2019-01-10T15:39:56.108Z,5.80
2019-01-10T15:45:00.330Z,4.03
2019-01-10T15:50:06.293Z,5.37
2019-01-10T15:55:11.646Z,7.93
2019-01-10T16:00:18.180Z,5.70
2019-01-10T16:05:22.233Z,4.87
2019-01-10T16:10:26.312Z,4.90
2019-01-10T16:15:30.412Z,4.93
2019-01-10T16:20:34.338Z,6.37
2019-01-10T16:25:38.362Z,4.67
2019-01-10T16:30:42.418Z,5.10
2019-01-10T16:35:46.105Z,5.47
2019-01-10T16:40:50.046Z,3.30
2019-01-10T16:45:53.714Z,7.13
2019-01-10T16:50:57.831Z,3.10
2019-01-10T16:56:01.720Z,9.13
2019-01-10T17:01:05.649Z,5.37
2019-01-10T17:06:09.325Z,5.20
2019-01-10T17:11:13.276Z,7.50
2019-01-10T17:16:17.546Z,6.30
2019-01-10T17:21:21.227Z,3.93
2019-01-10T17:26:24.922Z,4.67
2019-01-10T17:31:29.580Z,4.40
2019-01-10T17:36:33.424Z,6.23
2019-01-10T17:41:37.205Z,4.00
2019-01-10T17:46:40.905Z,6.20
2019-01-10T17:51:44.879Z,3.50
2019-01-10T17:56:48.565Z,5.10
2019-01-10T18:01:52.269Z,5.33
2019-01-10T18:06:56.107Z,5.43
2019-01-10T18:11:59.761Z,6.97
2019-01-10T18:17:03.629Z,6.33
2019-01-10T18:22:07.657Z,4.53
2019-01-10T18:27:11.785Z,6.60
2019-01-10T18:32:16.433Z,7.30
2019-01-10T18:37:20.149Z,5.83
2019-01-10T18:42:23.875Z,5.90
2019-01-10T18:47:27.708Z,6.30
2019-01-10T18:52:31.374Z,5.57
2019-01-10T18:57:35.353Z,2.57
2019-01-10T19:02:40.441Z,5.63
2019-01-10T19:07:45.608Z,4.73
2019-01-10T19:12:50.174Z,5.73
2019-01-10T19:17:54.893Z,5.47
2019-01-10T19:23:00.257Z,5.13
2019-01-10T19:28:03.975Z,4.37
2019-01-10T19:33:07.874Z,6.67
2019-01-10T19:38:11.674Z,5.73
2019-01-10T19:43:15.708Z,4.70
2019-01-10T19:48:20.056Z,3.53
2019-01-10T19:53:24.486Z,3.70
2019-01-10T19:58:28.162Z,3.97
2019-01-10T20:03:32.128Z,3.87
2019-01-10T20:08:35.819Z,3.70
2019-01-10T20:13:39.649Z,4.97
2019-01-10T20:18:43.413Z,3.43
2019-01-10T20:23:47.799Z,4.93
2019-01-10T20:28:51.535Z,4.73
2019-01-10T20:33:55.238Z,5.90
2019-01-10T20:38:58.935Z,3.77
2019-01-10T20:44:02.868Z,3.87
2019-01-10T20:49:06.937Z,2.60
2019-01-10T20:54:10.681Z,4.70
2019-01-10T20:59:14.426Z,2.63
2019-01-10T21:04:18.122Z,5.37
2019-01-10T21:09:21.828Z,4.27
2019-01-10T21:14:25.537Z,3.57
2019-01-10T21:19:29.499Z,3.83
2019-01-10T21:24:33.287Z,2.83
2019-01-10T21:29:37.041Z,3.20
2019-01-10T21:34:40.895Z,8.37
2019-01-10T21:39:44.644Z,5.27
2019-01-10T21:44:48.351Z,5.00
2019-01-10T21:49:52.517Z,3.33
2019-01-10T21:54:56.629Z,2.63
2019-01-10T22:00:00.861Z,7.13
2019-01-10T22:05:05.349Z,4.60
2019-01-10T22:10:10.050Z,2.70
2019-01-10T22:15:14.137Z,3.00
2019-01-10T22:20:18.132Z,6.07
2019-01-10T22:25:22.455Z,3.27
2019-01-10T22:30:26.228Z,3.53
2019-01-10T22:35:29.991Z,3.47
2019-01-10T22:40:33.689Z,4.87
2019-01-10T22:45:37.411Z,3.70
2019-01-10T22:50:41.097Z,2.40
2019-01-10T22:55:44.782Z,6.10
2019-01-10T23:01:06.293Z,4.30
2019-01-10T23:06:10.302Z,3.23
2019-01-10T23:11:18.730Z,3.73
2019-01-10T23:16:22.489Z,4.07
2019-01-10T23:21:26.921Z,4.23
2019-01-10T23:26:30.673Z,3.33
2019-01-10T23:31:34.394Z,4.17
2019-01-10T23:36:38.385Z,3.00
2019-01-10T23:41:42.209Z,3.57
2019-01-10T23:46:46.457Z,3.13
2019-01-10T23:51:50.223Z,2.70
2019-01-10T23:56:53.892Z,4.07
